Time;durP1;ratioP1;P1;durP2;ratioP2;P2;SDS_P1;SDS_P2;PMS_P1;PMS_P2;Temp;Humidity;BMP_temperature;BMP_pressure;BME280_temperature;BME280_humidity;BME280_pressure;Samples;Min_cycle;Max_cycle;Signal;HPM_P1;HPM_P2
2021/07/08 00:00:33;;;;;;;6.15;4.05;;;18.60;86.60;;;;;;5015134;28;20064;-90
2021/07/08 00:02:59;;;;;;;6.90;4.10;;;18.50;86.30;;;;;;5014314;28;20073;-90
2021/07/08 00:05:25;;;;;;;5.15;3.90;;;18.50;87.00;;;;;;5014700;28;20099;-91
2021/07/08 00:07:52;;;;;;;5.85;4.20;;;18.50;87.00;;;;;;5014997;28;20056;-90
2021/07/08 00:10:28;;;;;;;5.70;3.95;;;18.40;86.90;;;;;;5014638;28;20045;-90
2021/07/08 00:12:54;;;;;;;5.32;4.10;;;18.40;87.10;;;;;;5013655;28;20511;-90
2021/07/08 00:15:21;;;;;;;5.30;3.58;;;18.30;86.80;;;;;;5014343;28;20072;-90
2021/07/08 00:17:48;;;;;;;6.55;4.55;;;18.30;86.80;;;;;;5014219;28;20045;-90
2021/07/08 00:20:19;;;;;;;4.72;3.75;;;18.30;87.30;;;;;;5014121;28;20089;-90
2021/07/08 00:22:45;;;;;;;5.80;4.10;;;18.30;87.40;;;;;;5013899;28;20563;-90
2021/07/08 00:25:14;;;;;;;5.85;3.83;;;18.20;88.20;;;;;;5014331;28;20049;-90
2021/07/08 00:27:41;;;;;;;6.18;3.97;;;18.20;87.50;;;;;;5014660;28;20088;-91
2021/07/08 00:30:08;;;;;;;5.32;3.85;;;18.10;87.30;;;;;;5013976;28;20061;-90
2021/07/08 00:32:34;;;;;;;7.10;4.20;;;18.10;87.20;;;;;;5012882;28;20116;-90
2021/07/08 00:35:00;;;;;;;5.13;3.83;;;18.10;87.30;;;;;;4993131;28;20413;-89
2021/07/08 00:37:26;;;;;;;5.60;4.32;;;18.00;87.30;;;;;;4993773;28;20054;-89
2021/07/08 00:39:51;;;;;;;5.50;3.90;;;18.00;87.40;;;;;;4993121;28;20084;-89
2021/07/08 00:42:18;;;;;;;5.68;4.07;;;17.90;87.40;;;;;;4995000;28;20042;-89
2021/07/08 00:44:44;;;;;;;5.78;3.75;;;17.90;87.50;;;;;;4992996;28;20057;-90
2021/07/08 00:47:09;;;;;;;5.78;3.65;;;17.90;87.60;;;;;;4994235;28;20050;-89
2021/07/08 00:49:36;;;;;;;5.55;4.00;;;17.80;87.60;;;;;;5003080;28;20053;-89
2021/07/08 00:52:01;;;;;;;5.82;4.25;;;17.80;87.60;;;;;;5012677;28;20054;-90
2021/07/08 00:54:27;;;;;;;6.10;3.85;;;17.80;87.80;;;;;;5012708;28;20077;-89
2021/07/08 00:56:53;;;;;;;5.78;3.80;;;17.70;87.80;;;;;;5012334;28;20132;-89
2021/07/08 00:59:19;;;;;;;5.22;3.55;;;17.70;87.90;;;;;;5010500;28;20046;-89
2021/07/08 01:01:45;;;;;;;4.85;3.80;;;17.60;87.70;;;;;;5010880;28;20516;-90
2021/07/08 01:04:12;;;;;;;6.32;4.00;;;17.70;88.10;;;;;;5011048;28;20057;-89
2021/07/08 01:06:44;;;;;;;5.35;4.18;;;17.60;88.40;;;;;;5012555;28;20046;-90
2021/07/08 01:09:12;;;;;;;6.97;3.92;;;17.60;88.40;;;;;;5011445;28;20050;-89
2021/07/08 01:11:38;;;;;;;5.25;3.80;;;17.60;88.50;;;;;;5013474;28;20042;-90
2021/07/08 01:14:05;;;;;;;6.13;3.58;;;17.50;88.30;;;;;;5012639;28;20053;-90
2021/07/08 01:16:31;;;;;;;5.95;3.53;;;17.50;88.40;;;;;;5013959;28;20401;-90
2021/07/08 01:18:57;;;;;;;5.85;3.92;;;17.50;88.50;;;;;;5013410;28;20053;-90
2021/07/08 01:21:32;;;;;;;5.03;3.90;;;17.50;88.50;;;;;;5012237;28;20125;-90
2021/07/08 01:23:59;;;;;;;5.40;3.63;;;17.40;88.40;;;;;;5013648;28;20049;-89
2021/07/08 01:26:25;;;;;;;5.43;3.70;;;17.40;88.70;;;;;;5013487;28;20046;-90
2021/07/08 01:28:58;;;;;;;4.97;3.40;;;17.40;88.90;;;;;;5012638;28;20057;-89
2021/07/08 01:31:25;;;;;;;5.32;3.75;;;17.30;88.60;;;;;;5013162;28;20505;-91
2021/07/08 01:33:52;;;;;;;6.60;3.60;;;17.30;88.60;;;;;;5012839;28;20050;-89
2021/07/08 01:36:18;;;;;;;5.50;3.60;;;17.30;88.80;;;;;;5012857;28;20052;-91
2021/07/08 01:38:45;;;;;;;5.28;3.70;;;17.30;88.70;;;;;;5013330;28;20401;-90
2021/07/08 01:41:10;;;;;;;4.47;3.45;;;17.20;88.70;;;;;;5013119;28;20147;-90
2021/07/08 01:43:39;;;;;;;5.22;3.80;;;17.20;88.80;;;;;;5012665;28;20509;-90
2021/07/08 01:46:10;;;;;;;4.70;3.20;;;17.20;88.80;;;;;;5012813;28;20057;-90
2021/07/08 01:48:36;;;;;;;5.18;3.80;;;17.20;88.80;;;;;;5013074;28;20046;-89
2021/07/08 01:51:24;;;;;;;5.05;3.45;;;17.20;88.80;;;;;;5011273;28;20069;-88
2021/07/08 01:53:51;;;;;;;4.95;3.50;;;17.10;88.70;;;;;;5001508;28;20496;-89
2021/07/08 01:56:20;;;;;;;5.82;3.40;;;17.10;88.80;;;;;;5016514;28;20379;-90
2021/07/08 01:58:46;;;;;;;5.88;4.00;;;17.10;88.70;;;;;;5017667;28;20077;-89
2021/07/08 02:01:11;;;;;;;6.72;3.70;;;17.00;88.80;;;;;;5017430;28;20076;-90
2021/07/08 02:03:37;;;;;;;6.43;3.55;;;17.00;88.90;;;;;;5016974;28;20073;-89
2021/07/08 02:06:04;;;;;;;4.45;3.13;;;17.00;89.00;;;;;;5014024;28;20069;-92
2021/07/08 02:08:30;;;;;;;4.93;3.22;;;17.00;88.90;;;;;;5014097;28;20498;-90
2021/07/08 02:10:56;;;;;;;4.57;3.50;;;16.90;89.00;;;;;;5014471;28;20081;-90
2021/07/08 02:13:22;;;;;;;5.53;3.55;;;16.90;89.00;;;;;;5017216;28;20045;-89
2021/07/08 02:15:47;;;;;;;4.72;3.42;;;16.80;88.90;;;;;;5017765;28;20482;-89
2021/07/08 02:18:13;;;;;;;6.78;3.80;;;16.80;89.00;;;;;;5016786;28;20046;-89
2021/07/08 02:20:39;;;;;;;5.18;3.63;;;16.80;89.20;;;;;;5016719;28;20092;-89
2021/07/08 02:23:05;;;;;;;5.28;3.50;;;16.80;89.40;;;;;;5016103;28;20092;-89
2021/07/08 02:25:31;;;;;;;4.47;3.65;;;16.80;89.00;;;;;;5014768;28;20069;-89
2021/07/08 02:27:58;;;;;;;5.00;3.55;;;16.70;89.10;;;;;;5016749;28;20077;-89
2021/07/08 02:30:25;;;;;;;5.07;3.88;;;16.70;89.10;;;;;;5017120;28;20073;-89
2021/07/08 02:32:57;;;;;;;4.80;3.60;;;16.70;89.30;;;;;;5016637;28;20065;-90
2021/07/08 02:35:24;;;;;;;5.32;3.80;;;16.60;89.00;;;;;;5016721;28;20056;-89
2021/07/08 02:37:52;;;;;;;5.03;3.45;;;16.60;89.20;;;;;;4998926;28;20130;-89
2021/07/08 02:40:29;;;;;;;5.65;3.50;;;16.60;89.10;;;;;;5018476;28;20056;-88
2021/07/08 02:42:55;;;;;;;5.50;3.42;;;16.50;88.90;;;;;;5021127;28;20128;-89
2021/07/08 02:45:26;;;;;;;4.82;3.25;;;16.50;89.40;;;;;;5021727;28;20494;-89
2021/07/08 02:47:53;;;;;;;4.50;3.35;;;16.50;89.30;;;;;;5021405;28;20061;-88
2021/07/08 02:50:20;;;;;;;5.00;3.55;;;16.50;89.70;;;;;;5021267;28;20470;-86
2021/07/08 02:52:47;;;;;;;5.30;3.08;;;16.50;89.80;;;;;;5020055;28;20046;-88
2021/07/08 02:55:14;;;;;;;4.82;3.50;;;16.40;89.70;;;;;;5020429;28;20481;-89
2021/07/08 02:57:40;;;;;;;5.10;3.55;;;16.40;89.80;;;;;;5020457;28;20437;-88
2021/07/08 03:00:10;;;;;;;4.75;3.53;;;16.30;89.50;;;;;;5017934;28;20053;-88
2021/07/08 03:02:36;;;;;;;4.65;3.30;;;16.30;89.40;;;;;;5017901;28;20068;-89
2021/07/08 03:05:07;;;;;;;6.13;3.80;;;16.30;89.70;;;;;;5016012;28;20080;-89
2021/07/08 03:07:33;;;;;;;5.47;3.50;;;16.30;89.80;;;;;;5014480;28;20046;-89
2021/07/08 03:09:59;;;;;;;5.00;3.55;;;16.30;89.90;;;;;;5014938;28;20053;-89
2021/07/08 03:12:24;;;;;;;5.72;3.53;;;16.20;89.90;;;;;;5014227;28;20405;-89
2021/07/08 03:14:50;;;;;;;5.32;3.65;;;16.20;90.00;;;;;;5014303;28;20046;-89
2021/07/08 03:17:16;;;;;;;4.65;3.50;;;16.20;90.00;;;;;;5015363;28;20129;-90
2021/07/08 03:19:42;;;;;;;5.85;3.55;;;16.20;90.00;;;;;;5016021;28;20600;-89
2021/07/08 03:22:08;;;;;;;5.90;3.67;;;16.10;90.00;;;;;;5014813;28;20141;-89
2021/07/08 03:24:33;;;;;;;6.03;3.70;;;16.10;90.00;;;;;;5016127;28;20049;-89
2021/07/08 03:27:02;;;;;;;5.43;3.90;;;16.10;90.00;;;;;;5015485;28;20046;-90
2021/07/08 03:29:27;;;;;;;6.07;3.55;;;16.10;90.10;;;;;;5014863;28;20140;-89
2021/07/08 03:31:53;;;;;;;5.15;3.55;;;16.00;90.00;;;;;;5015819;28;20050;-89
2021/07/08 03:34:19;;;;;;;4.93;3.35;;;16.00;90.00;;;;;;5015290;28;20077;-89
2021/07/08 03:36:45;;;;;;;6.60;3.70;;;16.00;90.10;;;;;;5014032;28;20493;-89
2021/07/08 03:39:10;;;;;;;5.15;3.80;;;16.00;90.00;;;;;;5015804;28;20486;-90
2021/07/08 03:41:36;;;;;;;5.43;3.85;;;15.90;90.00;;;;;;5015459;28;20046;-88
2021/07/08 03:44:02;;;;;;;5.75;3.88;;;15.90;90.00;;;;;;5014433;28;20088;-90
2021/07/08 03:46:28;;;;;;;5.47;3.83;;;15.90;90.10;;;;;;5015355;28;20062;-89
2021/07/08 03:48:53;;;;;;;5.30;3.40;;;15.90;90.10;;;;;;5014466;28;20417;-89
2021/07/08 03:51:19;;;;;;;5.97;3.78;;;15.90;90.10;;;;;;5015203;28;20517;-90
2021/07/08 03:53:45;;;;;;;5.43;3.75;;;15.80;90.20;;;;;;5015161;28;20058;-89
2021/07/08 03:56:12;;;;;;;5.18;3.55;;;15.80;90.20;;;;;;5014389;28;20674;-90
2021/07/08 03:58:39;;;;;;;6.00;3.50;;;15.80;90.20;;;;;;5015207;28;20095;-90
2021/07/08 04:01:05;;;;;;;5.15;3.55;;;15.80;90.30;;;;;;5013248;28;20046;-89
2021/07/08 04:03:30;;;;;;;4.88;3.50;;;15.70;90.30;;;;;;5013508;28;20391;-90
2021/07/08 04:05:56;;;;;;;5.82;3.83;;;15.80;90.30;;;;;;5014148;28;20050;-89
2021/07/08 04:08:22;;;;;;;6.47;3.75;;;15.70;90.30;;;;;;5013359;28;20062;-89
2021/07/08 04:10:48;;;;;;;5.30;3.67;;;15.70;90.40;;;;;;5013630;28;20046;-89
2021/07/08 04:13:17;;;;;;;5.13;3.28;;;15.70;90.50;;;;;;5014967;28;20133;-89
2021/07/08 04:15:44;;;;;;;5.88;3.40;;;15.70;90.30;;;;;;5014592;28;20068;-89
2021/07/08 04:18:10;;;;;;;5.55;3.50;;;15.70;90.20;;;;;;5012775;28;20050;-89
2021/07/08 04:20:56;;;;;;;5.85;3.25;;;15.70;90.10;;;;;;4999412;28;20046;-89
2021/07/08 04:23:21;;;;;;;6.28;3.20;;;15.60;90.20;;;;;;5014162;28;20400;-89
2021/07/08 04:25:47;;;;;;;4.25;3.03;;;15.60;90.10;;;;;;5013592;28;20185;-89
2021/07/08 04:28:14;;;;;;;4.60;3.33;;;15.60;90.20;;;;;;5014276;28;20481;-88
2021/07/08 04:30:41;;;;;;;6.60;3.30;;;15.60;90.00;;;;;;5018870;28;20049;-89
2021/07/08 04:33:07;;;;;;;5.07;3.20;;;15.60;90.00;;;;;;5033464;28;20053;-88
2021/07/08 04:35:53;;;;;;;5.07;3.42;;;15.50;89.90;;;;;;5016645;28;20485;-90
2021/07/08 04:38:18;;;;;;;4.80;3.22;;;15.50;90.10;;;;;;5015151;28;20052;-89
2021/07/08 04:41:04;;;;;;;5.63;3.40;;;15.60;90.20;;;;;;5008206;28;20061;-90
2021/07/08 04:43:30;;;;;;;5.15;3.08;;;15.50;90.20;;;;;;5016210;28;20053;-90
2021/07/08 04:45:56;;;;;;;4.65;3.38;;;15.50;90.30;;;;;;5013402;28;20050;-90
2021/07/08 04:48:24;;;;;;;5.47;3.15;;;15.50;90.20;;;;;;5014504;28;20100;-90
2021/07/08 04:50:50;;;;;;;4.45;3.28;;;15.50;90.10;;;;;;5013630;28;20050;-90
2021/07/08 04:53:16;;;;;;;5.20;3.45;;;15.50;90.20;;;;;;5013834;28;20060;-90
2021/07/08 04:55:43;;;;;;;5.07;3.60;;;15.50;90.20;;;;;;5014475;28;20116;-90
2021/07/08 04:58:09;;;;;;;5.28;3.40;;;15.50;90.30;;;;;;5013970;28;20088;-86
2021/07/08 05:00:34;;;;;;;5.13;3.42;;;15.50;90.30;;;;;;5013600;28;20066;-85
2021/07/08 05:03:06;;;;;;;4.97;3.28;;;15.50;90.20;;;;;;5013446;28;20086;-85
2021/07/08 05:05:32;;;;;;;5.07;3.40;;;15.50;90.20;;;;;;5012850;28;20137;-85
2021/07/08 05:07:57;;;;;;;5.68;3.55;;;15.50;90.30;;;;;;5013000;28;20140;-85
2021/07/08 05:10:23;;;;;;;6.20;3.55;;;15.50;90.30;;;;;;5014156;28;20535;-94
2021/07/08 05:12:49;;;;;;;5.15;3.50;;;15.50;90.40;;;;;;5013408;28;20050;-95
2021/07/08 05:15:15;;;;;;;5.13;3.38;;;15.50;90.40;;;;;;5013739;28;20052;-91
2021/07/08 05:17:42;;;;;;;5.68;3.47;;;15.50;90.40;;;;;;5014519;28;20493;-89
2021/07/08 05:20:09;;;;;;;6.60;3.75;;;15.50;90.50;;;;;;5013435;28;20073;-89
2021/07/08 05:22:36;;;;;;;5.25;3.72;;;15.60;90.20;;;;;;5021555;28;20136;-89
2021/07/08 05:25:03;;;;;;;5.43;3.75;;;15.60;90.30;;;;;;5023778;28;20050;-88
2021/07/08 05:27:30;;;;;;;6.93;3.97;;;15.60;90.40;;;;;;5020427;28;20119;-88
2021/07/08 05:29:56;;;;;;;5.80;4.03;;;15.60;90.50;;;;;;5018611;28;20050;-88
2021/07/08 05:32:22;;;;;;;7.82;5.93;;;15.70;90.50;;;;;;5023912;28;20108;-89
2021/07/08 05:34:48;;;;;;;6.95;4.22;;;15.70;90.60;;;;;;5020491;28;20041;-89
2021/07/08 05:37:14;;;;;;;5.25;3.70;;;15.70;90.40;;;;;;5020273;28;20409;-88
2021/07/08 05:39:40;;;;;;;5.68;4.05;;;15.70;90.30;;;;;;5016810;28;20076;-88
2021/07/08 05:42:06;;;;;;;4.97;3.97;;;15.70;90.20;;;;;;5012757;28;20072;-88
2021/07/08 05:44:32;;;;;;;17.48;11.30;;;15.80;90.30;;;;;;5013764;28;20196;-87
2021/07/08 05:46:58;;;;;;;11.73;7.82;;;15.80;91.20;;;;;;5013330;28;20077;-89
2021/07/08 05:49:24;;;;;;;18.23;12.60;;;15.90;91.20;;;;;;5013612;28;20050;-90
2021/07/08 05:51:49;;;;;;;11.63;7.47;;;15.90;91.70;;;;;;5013320;28;20061;-93
2021/07/08 05:54:15;;;;;;;18.85;13.48;;;16.00;91.30;;;;;;5014323;28;20064;-90
2021/07/08 05:56:41;;;;;;;7.90;6.45;;;16.00;91.70;;;;;;5012958;28;20511;-92
2021/07/08 05:59:07;;;;;;;17.42;11.68;;;16.10;91.30;;;;;;5013721;28;20054;-92
2021/07/08 06:01:33;;;;;;;8.45;5.93;;;16.10;91.60;;;;;;5014542;28;20490;-92
2021/07/08 06:03:58;;;;;;;12.10;8.25;;;16.20;91.00;;;;;;5014085;28;20053;-90
2021/07/08 06:06:24;;;;;;;14.68;10.52;;;16.20;91.10;;;;;;5014239;28;20100;-91
2021/07/08 06:08:50;;;;;;;15.07;10.27;;;16.20;91.50;;;;;;5014203;28;20074;-91
2021/07/08 06:11:15;;;;;;;18.92;13.55;;;16.20;91.50;;;;;;5014178;28;20048;-91
2021/07/08 06:13:42;;;;;;;19.25;14.07;;;16.30;92.20;;;;;;5013605;28;20045;-90
2021/07/08 06:16:08;;;;;;;18.10;13.32;;;16.40;92.70;;;;;;5013922;28;20058;-91
2021/07/08 06:18:34;;;;;;;14.50;9.73;;;16.50;92.70;;;;;;5013507;28;20054;-91
2021/07/08 06:21:00;;;;;;;19.58;14.35;;;16.50;91.80;;;;;;5014127;28;20053;-91
2021/07/08 06:23:25;;;;;;;15.43;11.50;;;16.60;92.20;;;;;;5018741;28;20052;-90
2021/07/08 06:25:51;;;;;;;22.85;15.40;;;16.60;92.20;;;;;;5013188;28;20050;-90
2021/07/08 06:28:17;;;;;;;25.52;15.95;;;16.70;92.60;;;;;;5013233;28;20405;-90
2021/07/08 06:30:44;;;;;;;18.50;14.95;;;16.70;93.00;;;;;;5012733;28;20058;-91
2021/07/08 06:33:10;;;;;;;21.17;16.20;;;16.80;93.00;;;;;;5013259;28;20489;-90
2021/07/08 06:35:35;;;;;;;19.77;16.33;;;16.90;93.00;;;;;;5012923;28;20054;-92
2021/07/08 06:38:01;;;;;;;20.50;14.75;;;16.90;93.40;;;;;;5013076;28;20046;-90
2021/07/08 06:40:27;;;;;;;19.33;14.40;;;17.00;93.30;;;;;;5013142;28;20465;-92
2021/07/08 06:42:53;;;;;;;17.77;14.82;;;17.20;93.20;;;;;;5014683;28;20133;-88
2021/07/08 06:45:19;;;;;;;17.63;15.23;;;17.30;93.20;;;;;;5015506;28;20133;-86
2021/07/08 06:47:48;;;;;;;22.35;15.38;;;17.40;93.20;;;;;;5015484;28;20053;-87
2021/07/08 06:50:14;;;;;;;19.55;14.60;;;17.50;93.40;;;;;;5016433;28;20045;-86
2021/07/08 06:52:40;;;;;;;17.25;13.05;;;17.60;93.50;;;;;;5015602;28;20074;-88
2021/07/08 06:55:07;;;;;;;16.23;13.52;;;17.70;93.20;;;;;;5016257;28;20124;-88
2021/07/08 06:57:34;;;;;;;20.17;13.75;;;17.70;93.00;;;;;;5016462;28;20089;-87
2021/07/08 07:00:00;;;;;;;18.88;14.82;;;17.90;92.90;;;;;;5015357;28;20093;-88
2021/07/08 07:02:25;;;;;;;18.05;14.88;;;18.00;92.90;;;;;;5015287;28;20564;-88
2021/07/08 07:04:51;;;;;;;18.67;14.15;;;18.10;92.90;;;;;;5015479;28;20046;-89
2021/07/08 07:07:17;;;;;;;16.38;13.65;;;18.20;92.90;;;;;;5015818;28;20049;-88
2021/07/08 07:09:43;;;;;;;17.63;12.88;;;18.30;92.80;;;;;;5015201;28;20054;-87
2021/07/08 07:12:09;;;;;;;17.92;12.35;;;18.40;92.70;;;;;;5015452;28;20046;-87
2021/07/08 07:14:34;;;;;;;19.17;12.35;;;18.50;92.60;;;;;;5014675;28;20132;-88
2021/07/08 07:17:01;;;;;;;18.85;12.52;;;18.60;92.20;;;;;;5015708;28;20057;-89
2021/07/08 07:19:27;;;;;;;18.00;11.85;;;18.70;92.00;;;;;;5015669;28;20049;-88
2021/07/08 07:21:54;;;;;;;15.18;10.80;;;18.70;91.60;;;;;;5013910;28;20076;-88
2021/07/08 07:24:20;;;;;;;15.88;11.07;;;18.80;91.20;;;;;;5015831;28;20091;-90
2021/07/08 07:26:46;;;;;;;14.35;10.85;;;18.90;91.00;;;;;;5014680;28;20037;-87
2021/07/08 07:29:12;;;;;;;18.38;10.82;;;19.10;91.00;;;;;;5015355;28;20049;-89
2021/07/08 07:31:37;;;;;;;20.30;11.02;;;19.10;90.70;;;;;;5015198;28;20049;-88
2021/07/08 07:34:03;;;;;;;13.63;10.25;;;19.20;90.40;;;;;;5015161;28;20050;-89
2021/07/08 07:36:28;;;;;;;17.65;10.65;;;19.40;90.30;;;;;;5015308;28;20041;-87
2021/07/08 07:38:54;;;;;;;13.93;10.38;;;19.40;90.20;;;;;;5017021;28;20045;-89
2021/07/08 07:41:20;;;;;;;15.55;11.18;;;19.50;90.00;;;;;;5014282;28;20042;-88
2021/07/08 07:43:47;;;;;;;16.00;10.13;;;19.60;90.10;;;;;;5014964;28;20386;-88
2021/07/08 07:46:14;;;;;;;12.95;10.18;;;19.70;89.70;;;;;;5015448;28;20567;-89
2021/07/08 07:48:40;;;;;;;14.27;10.00;;;19.80;89.70;;;;;;5014859;28;20053;-88
2021/07/08 07:51:05;;;;;;;14.68;11.32;;;19.90;89.00;;;;;;5014175;28;20050;-89
2021/07/08 07:53:31;;;;;;;15.70;9.60;;;20.00;89.40;;;;;;5014734;28;20041;-85
2021/07/08 07:55:56;;;;;;;17.98;10.55;;;20.10;88.20;;;;;;5013856;28;20103;-90
2021/07/08 07:58:26;;;;;;;14.65;9.57;;;20.20;88.50;;;;;;5014990;28;20049;-90
2021/07/08 08:00:52;;;;;;;14.10;9.15;;;20.40;88.00;;;;;;5014785;28;20050;-91
2021/07/08 08:03:17;;;;;;;13.77;8.65;;;20.40;87.20;;;;;;5014225;28;20477;-89
2021/07/08 08:05:49;;;;;;;13.27;8.25;;;20.50;86.70;;;;;;5015107;28;20137;-88
2021/07/08 08:08:27;;;;;;;13.60;8.00;;;20.60;86.10;;;;;;5015187;28;20042;-88
2021/07/08 08:10:54;;;;;;;14.70;8.32;;;20.70;85.60;;;;;;5014015;28;20058;-88
2021/07/08 08:13:21;;;;;;;11.80;7.95;;;20.80;85.20;;;;;;5014801;28;20073;-90
2021/07/08 08:15:49;;;;;;;11.05;7.93;;;20.90;85.60;;;;;;5014704;28;20057;-87
2021/07/08 08:18:15;;;;;;;11.80;7.80;;;21.00;85.10;;;;;;5014006;28;20058;-88
2021/07/08 08:20:41;;;;;;;13.13;7.60;;;21.10;84.30;;;;;;5015141;28;20054;-90
2021/07/08 08:23:07;;;;;;;11.23;6.35;;;21.10;83.80;;;;;;5013801;28;20507;-88
2021/07/08 08:25:34;;;;;;;11.48;7.05;;;21.20;83.10;;;;;;5014911;28;20125;-88
2021/07/08 08:28:00;;;;;;;12.63;7.90;;;21.30;83.70;;;;;;5014480;28;20049;-89
2021/07/08 08:30:25;;;;;;;11.75;7.80;;;21.40;83.50;;;;;;5014045;28;20100;-90
2021/07/08 08:32:51;;;;;;;9.95;6.25;;;21.50;82.70;;;;;;5014413;28;20057;-89
2021/07/08 08:35:17;;;;;;;11.05;6.43;;;21.60;81.90;;;;;;5014482;28;20045;-87
2021/07/08 08:37:43;;;;;;;9.15;6.03;;;21.70;80.80;;;;;;5013753;28;20065;-89
2021/07/08 08:40:10;;;;;;;10.68;6.00;;;21.70;80.40;;;;;;5014709;28;20048;-89
2021/07/08 08:42:36;;;;;;;9.07;5.72;;;21.80;80.60;;;;;;5014657;28;20401;-89
2021/07/08 08:45:07;;;;;;;9.57;6.00;;;21.90;80.10;;;;;;5013544;28;20054;-90
2021/07/08 08:47:32;;;;;;;12.65;5.78;;;22.00;79.30;;;;;;5014739;28;20387;-89
2021/07/08 08:50:00;;;;;;;10.43;4.72;;;22.10;79.10;;;;;;5014159;28;20133;-88
2021/07/08 08:52:27;;;;;;;9.82;4.80;;;22.10;79.00;;;;;;5013431;28;20077;-88
2021/07/08 08:54:53;;;;;;;10.40;4.50;;;22.20;79.30;;;;;;5013940;28;20080;-89
2021/07/08 08:57:19;;;;;;;9.88;5.00;;;22.30;79.30;;;;;;5014378;28;20049;-88
2021/07/08 08:59:45;;;;;;;11.20;5.00;;;22.40;78.30;;;;;;5013249;28;20046;-88
2021/07/08 09:02:17;;;;;;;10.02;5.28;;;22.50;77.50;;;;;;5014032;28;20417;-89
2021/07/08 09:04:45;;;;;;;11.15;5.10;;;22.60;76.40;;;;;;5013423;28;20057;-87
2021/07/08 09:07:23;;;;;;;10.77;5.10;;;22.70;76.80;;;;;;5013259;28;20065;-88
2021/07/08 09:09:56;;;;;;;10.43;4.88;;;22.80;76.50;;;;;;5013733;28;20498;-88
2021/07/08 09:12:23;;;;;;;9.77;5.38;;;22.90;76.70;;;;;;5013221;28;20064;-88
2021/07/08 09:14:50;;;;;;;10.10;4.50;;;23.00;75.90;;;;;;5013690;28;20052;-87
2021/07/08 09:17:17;;;;;;;9.38;4.80;;;23.00;75.50;;;;;;5013852;28;20050;-90
2021/07/08 09:19:43;;;;;;;7.75;4.43;;;23.10;74.20;;;;;;5013274;28;20050;-88
2021/07/08 09:22:09;;;;;;;8.25;4.60;;;23.20;74.40;;;;;;5013891;28;20128;-88
2021/07/08 09:24:35;;;;;;;10.30;4.30;;;23.20;74.30;;;;;;5013771;28;20054;-89
2021/07/08 09:27:07;;;;;;;9.48;4.20;;;23.20;74.00;;;;;;5011951;28;20137;-88
2021/07/08 09:29:38;;;;;;;9.18;4.43;;;23.30;73.70;;;;;;5008122;28;20055;-87
2021/07/08 09:32:10;;;;;;;10.63;4.55;;;23.30;73.70;;;;;;5012634;28;20049;-87
2021/07/08 09:34:39;;;;;;;9.00;4.53;;;23.30;73.20;;;;;;5012814;28;20490;-88
2021/07/08 09:37:08;;;;;;;8.10;4.20;;;23.30;75.20;;;;;;5021373;28;20046;-88
2021/07/08 09:39:42;;;;;;;10.35;4.50;;;23.30;74.90;;;;;;5025111;28;20046;-88
2021/07/08 09:42:10;;;;;;;8.93;4.43;;;23.30;73.70;;;;;;5012268;28;20136;-88
2021/07/08 09:44:37;;;;;;;9.48;4.88;;;23.40;73.70;;;;;;5013133;28;20188;-88
2021/07/08 09:47:03;;;;;;;10.77;4.57;;;23.40;75.20;;;;;;5012759;28;20061;-90
2021/07/08 09:49:29;;;;;;;8.52;4.07;;;23.50;74.10;;;;;;5012258;28;20045;-88
2021/07/08 09:51:55;;;;;;;7.45;4.03;;;23.50;74.30;;;;;;5012124;28;20049;-87
2021/07/08 09:54:44;;;;;;;12.30;4.35;;;23.60;73.90;;;;;;5011824;28;20045;-87
2021/07/08 09:57:30;;;;;;;9.25;4.28;;;23.70;74.10;;;;;;5013144;28;20633;-92
2021/07/08 09:59:56;;;;;;;9.95;3.95;;;23.80;75.20;;;;;;5013245;28;20053;-90
2021/07/08 10:02:30;;;;;;;9.63;3.60;;;23.80;73.30;;;;;;5011621;28;20057;-88
2021/07/08 10:04:58;;;;;;;10.73;4.30;;;23.90;72.50;;;;;;5013708;28;20077;-89
2021/07/08 10:07:24;;;;;;;12.15;4.20;;;23.90;73.90;;;;;;5012986;28;20445;-87
2021/07/08 10:09:50;;;;;;;9.18;4.35;;;24.00;73.40;;;;;;5011984;28;20053;-87
2021/07/08 10:12:16;;;;;;;8.52;3.80;;;24.10;72.60;;;;;;5012484;28;20072;-88
2021/07/08 10:14:43;;;;;;;9.65;4.03;;;24.20;73.30;;;;;;5013457;28;20069;-90
2021/07/08 10:17:11;;;;;;;8.77;4.50;;;24.20;73.60;;;;;;5013765;28;20042;-89
2021/07/08 10:19:38;;;;;;;8.43;4.47;;;24.30;74.30;;;;;;5017732;28;20493;-87
2021/07/08 10:22:04;;;;;;;10.48;4.28;;;24.40;72.20;;;;;;5016325;28;20080;-87
2021/07/08 10:24:30;;;;;;;13.45;5.28;;;24.40;72.70;;;;;;5014905;28;20139;-88
2021/07/08 10:26:57;;;;;;;9.10;4.15;;;24.50;70.80;;;;;;5016142;28;20042;-88
2021/07/08 10:29:24;;;;;;;9.43;4.32;;;24.50;71.50;;;;;;5016589;28;20188;-88
2021/07/08 10:31:51;;;;;;;8.32;4.40;;;24.60;70.70;;;;;;5015570;28;20041;-89
2021/07/08 10:34:18;;;;;;;8.82;4.32;;;24.60;70.30;;;;;;5016606;28;20061;-89
2021/07/08 10:36:52;;;;;;;12.60;4.07;;;24.70;70.30;;;;;;5015478;28;20057;-88
2021/07/08 10:39:19;;;;;;;8.70;4.28;;;24.70;70.40;;;;;;5017188;28;20069;-88
2021/07/08 10:41:49;;;;;;;10.85;4.00;;;24.70;72.10;;;;;;5016050;28;20046;-88
2021/07/08 10:44:33;;;;;;;8.65;3.88;;;24.70;71.30;;;;;;5017070;28;20088;-88
2021/07/08 10:47:00;;;;;;;9.50;4.00;;;24.80;73.30;;;;;;5025973;28;20501;-89
2021/07/08 10:49:39;;;;;;;9.10;3.85;;;24.90;71.50;;;;;;5016398;28;20050;-89
2021/07/08 10:52:09;;;;;;;7.45;3.10;;;24.90;72.50;;;;;;5015127;28;20383;-90
2021/07/08 10:54:35;;;;;;;9.45;3.40;;;24.90;70.20;;;;;;5016623;28;20054;-88
2021/07/08 10:57:03;;;;;;;9.00;3.40;;;24.90;71.10;;;;;;5015250;28;20129;-89
2021/07/08 10:59:45;;;;;;;9.07;3.33;;;25.00;72.10;;;;;;5015149;28;20052;-89
2021/07/08 11:02:56;;;;;;;9.95;3.30;;;25.00;69.40;;;;;;5014010;28;20494;-90
2021/07/08 11:05:54;;;;;;;10.13;3.72;;;25.10;68.50;;;;;;5009009;28;20046;-89
2021/07/08 11:08:44;;;;;;;7.22;3.50;;;25.00;69.90;;;;;;5014639;28;20045;-90
2021/07/08 11:11:21;;;;;;;10.63;3.90;;;25.10;69.00;;;;;;5005624;28;20133;-88
2021/07/08 11:13:47;;;;;;;11.98;3.70;;;25.20;68.70;;;;;;5003356;28;20046;-88
2021/07/08 11:16:43;;;;;;;7.22;3.88;;;25.20;70.60;;;;;;5002414;28;20084;-89
2021/07/08 11:19:28;;;;;;;8.05;3.35;;;25.30;72.10;;;;;;5015254;28;20140;-88
2021/07/08 11:22:04;;;;;;;9.30;3.90;;;25.40;70.50;;;;;;5005159;28;20069;-91
2021/07/08 11:24:46;;;;;;;7.05;3.85;;;25.40;67.80;;;;;;5014903;28;20046;-89
2021/07/08 11:27:35;;;;;;;8.40;3.90;;;25.50;71.20;;;;;;5013739;28;20049;-90
2021/07/08 11:30:12;;;;;;;7.32;3.53;;;25.60;69.40;;;;;;5015145;28;20054;-90
2021/07/08 11:32:48;;;;;;;11.55;3.30;;;25.60;70.20;;;;;;5014842;28;20547;-89
2021/07/08 11:37:53;;;;;;;7.07;3.55;;;25.70;71.10;;;;;;5014680;28;20177;-92
2021/07/08 11:40:20;;;;;;;8.57;3.67;;;25.80;72.90;;;;;;5012304;28;20057;-92
2021/07/08 11:42:47;;;;;;;7.63;3.72;;;25.90;69.00;;;;;;5015289;28;20049;-89
2021/07/08 11:45:16;;;;;;;6.60;3.10;;;25.90;71.50;;;;;;5014959;28;20054;-86
2021/07/08 11:47:54;;;;;;;9.95;3.42;;;25.90;71.80;;;;;;5014153;28;20053;-89
2021/07/08 11:50:26;;;;;;;7.55;2.85;;;26.10;73.00;;;;;;5014891;28;20049;-90
2021/07/08 11:53:08;;;;;;;5.38;2.80;;;26.10;68.60;;;;;;5014879;28;20054;-90
2021/07/08 11:55:35;;;;;;;8.40;3.03;;;26.10;67.80;;;;;;5014488;28;20054;-89
2021/07/08 11:58:04;;;;;;;7.68;2.90;;;26.20;71.30;;;;;;5015561;28;20448;-90
2021/07/08 12:00:38;;;;;;;7.60;3.13;;;26.30;72.00;;;;;;5015546;28;20123;-90
2021/07/08 12:03:31;;;;;;;6.78;3.20;;;26.30;70.90;;;;;;5014509;28;20061;-90
2021/07/08 12:06:04;;;;;;;8.63;3.15;;;26.40;71.40;;;;;;5014732;28;20057;-91
2021/07/08 12:08:36;;;;;;;5.75;2.50;;;26.50;70.30;;;;;;5015050;28;20069;-93
2021/07/08 12:11:15;;;;;;;9.27;3.13;;;26.50;71.10;;;;;;5015581;28;20147;-92
2021/07/08 12:14:04;;;;;;;6.97;2.70;;;26.50;69.40;;;;;;5015463;28;20096;-91
2021/07/08 12:16:33;;;;;;;8.68;2.70;;;26.60;71.30;;;;;;5014527;28;20050;-91
2021/07/08 12:19:21;;;;;;;6.20;3.10;;;26.60;72.70;;;;;;5014887;28;20069;-92
2021/07/08 12:21:48;;;;;;;6.50;2.75;;;26.60;70.80;;;;;;5015262;28;20180;-91
2021/07/08 12:24:34;;;;;;;8.40;2.55;;;26.70;72.70;;;;;;5014355;28;20065;-93
2021/07/08 12:27:03;;;;;;;8.43;3.10;;;26.70;70.00;;;;;;5014847;28;20100;-93
2021/07/08 12:29:37;;;;;;;10.80;2.88;;;26.70;72.40;;;;;;5014587;28;20045;-90
2021/07/08 12:32:04;;;;;;;10.90;2.75;;;26.80;73.10;;;;;;5014925;28;20057;-91
2021/07/08 12:34:38;;;;;;;7.07;2.50;;;26.80;73.10;;;;;;5014835;28;20424;-91
2021/07/08 12:37:20;;;;;;;8.15;2.70;;;26.80;69.50;;;;;;5014130;28;20061;-91
2021/07/08 12:39:52;;;;;;;7.25;2.40;;;26.80;71.90;;;;;;5013920;28;20130;-92
2021/07/08 12:42:21;;;;;;;;;;;26.80;68.40;;;;;;5015343;28;20056;-90
2021/07/08 12:44:49;;;;;;;7.18;2.38;;;26.80;71.90;;;;;;5013464;28;20332;-91
2021/07/08 12:47:16;;;;;;;8.57;2.20;;;26.90;71.70;;;;;;5014483;28;20073;-93
2021/07/08 12:49:42;;;;;;;8.35;2.70;;;27.00;71.50;;;;;;5014572;28;20134;-91
2021/07/08 12:52:11;;;;;;;8.20;2.53;;;27.00;72.40;;;;;;5013530;28;20112;-91